Time;durP1;ratioP1;P1;durP2;ratioP2;P2;SDS_P1;SDS_P2;PMS_P1;PMS_P2;Temp;Humidity;BMP_temperature;BMP_pressure;BME280_temperature;BME280_humidity;BME280_pressure;Samples;Min_cycle;Max_cycle;Signal;HPM_P1;HPM_P2
2022/03/10 00:00:08;;;;;;;8.82;3.95;;;;;;;-2.27;100.00;100539.06;5031908;28;20036;-82
2022/03/10 00:02:36;;;;;;;7.40;3.08;;;;;;;-2.28;100.00;100550.53;5058947;28;20043;-82
2022/03/10 00:05:02;;;;;;;6.70;3.38;;;;;;;-2.35;100.00;100551.91;5011172;28;20031;-83
2022/03/10 00:07:28;;;;;;;15.77;4.80;;;;;;;-2.39;100.00;100543.31;5048189;28;20036;-82
2022/03/10 00:09:53;;;;;;;5.90;3.08;;;;;;;-2.38;100.00;100545.03;5030541;28;20131;-82
2022/03/10 00:12:19;;;;;;;8.43;3.70;;;;;;;-2.32;100.00;100535.88;5059729;28;20122;-82
2022/03/10 00:14:45;;;;;;;8.02;3.67;;;;;;;-2.27;100.00;100534.66;5031197;28;20032;-83
2022/03/10 00:17:10;;;;;;;1.30;1.20;;;;;;;-2.28;100.00;100532.94;5030569;28;20417;-82
2022/03/10 00:19:36;;;;;;;13.50;5.53;;;;;;;-2.25;100.00;100526.63;5061097;28;20032;-81
2022/03/10 00:22:02;;;;;;;15.65;5.43;;;;;;;-2.25;100.00;100530.13;5046150;28;20086;-82
2022/03/10 00:24:28;;;;;;;9.80;4.47;;;;;;;-2.15;100.00;100518.97;5067414;28;20040;-80
2022/03/10 00:26:53;;;;;;;9.40;4.65;;;;;;;-2.05;100.00;100525.34;5026417;28;20046;-81
2022/03/10 00:29:19;;;;;;;7.45;3.90;;;;;;;-2.02;100.00;100515.44;5048572;28;20032;-80
2022/03/10 00:31:45;;;;;;;3.35;2.45;;;;;;;-2.13;100.00;100515.31;5063012;28;20428;-79
2022/03/10 00:34:10;;;;;;;4.60;2.42;;;;;;;-2.11;100.00;100520.50;5049851;28;20064;-80
2022/03/10 00:36:36;;;;;;;7.65;3.78;;;;;;;-2.08;100.00;100520.28;5031003;28;20359;-79
2022/03/10 00:39:04;;;;;;;8.77;4.53;;;;;;;-2.52;100.00;100463.44;5045748;28;20266;-79
2022/03/10 00:41:30;;;;;;;8.80;3.88;;;;;;;-2.25;100.00;100519.59;5061248;28;20064;-79
2022/03/10 00:43:56;;;;;;;9.93;4.28;;;;;;;-2.36;100.00;100501.00;5046304;28;20466;-81
2022/03/10 00:46:22;;;;;;;7.85;4.25;;;;;;;-2.40;100.00;100510.06;5065734;28;20036;-80
2022/03/10 00:48:47;;;;;;;7.40;3.92;;;;;;;-2.47;100.00;100508.75;5045122;28;20489;-82
2022/03/10 00:51:13;;;;;;;7.70;2.25;;;;;;;-2.58;100.00;100500.69;5056768;28;20037;-82
2022/03/10 00:53:44;;;;;;;6.03;3.10;;;;;;;-2.53;100.00;100504.72;5066509;28;20133;-81
2022/03/10 00:56:10;;;;;;;10.60;4.70;;;;;;;-2.47;100.00;100506.94;5058258;28;20090;-81
2022/03/10 00:58:35;;;;;;;8.77;3.70;;;;;;;-2.46;100.00;100513.94;5047419;28;20025;-81
2022/03/10 01:01:01;;;;;;;14.20;4.15;;;;;;;-2.47;100.00;100503.47;5045176;28;20127;-81
2022/03/10 01:03:26;;;;;;;11.88;4.90;;;;;;;-2.48;100.00;100494.75;5047209;28;20049;-83
2022/03/10 01:05:52;;;;;;;8.82;4.32;;;;;;;-2.50;100.00;100493.16;5066868;28;20024;-82
2022/03/10 01:08:17;;;;;;;20.30;6.35;;;;;;;-2.49;100.00;100503.59;5065054;28;20378;-81
2022/03/10 01:10:43;;;;;;;19.58;7.03;;;;;;;-2.63;100.00;100486.97;5051352;28;20037;-81
2022/03/10 01:13:17;;;;;;;18.88;6.80;;;;;;;-2.62;100.00;100492.16;5028266;28;20033;-82
2022/03/10 01:15:45;;;;;;;;;;;;;;;-2.66;100.00;100502.03;5062929;28;20032;-80
2022/03/10 01:18:11;;;;;;;11.60;5.68;;;;;;;-2.84;100.00;100484.75;5030933;28;19935;-80
2022/03/10 01:20:37;;;;;;;14.00;5.70;;;;;;;-2.76;100.00;100497.44;5030129;28;20251;-80
2022/03/10 01:23:02;;;;;;;12.40;4.22;;;;;;;-2.83;100.00;100488.22;5058844;28;20362;-80
2022/03/10 01:25:28;;;;;;;14.65;4.57;;;;;;;-2.87;100.00;100488.44;5032730;28;20040;-81
2022/03/10 01:27:53;;;;;;;16.52;4.05;;;;;;;-2.90;100.00;100488.63;5049807;28;20484;-80
2022/03/10 01:30:22;;;;;;;13.02;4.65;;;;;;;-2.99;100.00;100486.59;5048479;28;20044;-80
2022/03/10 01:32:47;;;;;;;10.73;4.32;;;;;;;-3.04;100.00;100483.41;5048297;28;20216;-81
2022/03/10 01:35:15;;;;;;;6.88;3.30;;;;;;;-2.98;100.00;100479.53;5049449;28;20035;-80
2022/03/10 01:37:40;;;;;;;13.20;5.25;;;;;;;-3.04;100.00;100465.00;5032362;28;20483;-80
2022/03/10 01:40:09;;;;;;;7.32;3.47;;;;;;;-2.99;100.00;100467.31;5035976;28;20040;-79
2022/03/10 01:42:35;;;;;;;7.18;3.83;;;;;;;-2.91;100.00;100462.41;5046953;28;20035;-80
2022/03/10 01:45:01;;;;;;;6.63;3.83;;;;;;;-2.82;100.00;100466.25;5044564;28;20032;-80
2022/03/10 01:47:26;;;;;;;9.18;3.42;;;;;;;-2.81;100.00;100463.50;5062100;28;20043;-81
2022/03/10 01:49:52;;;;;;;9.10;4.53;;;;;;;-2.71;100.00;100469.88;5043481;28;20044;-81
2022/03/10 01:52:19;;;;;;;7.43;4.07;;;;;;;-2.71;100.00;100456.72;5045096;28;20070;-81
2022/03/10 01:54:45;;;;;;;7.93;3.75;;;;;;;-2.66;100.00;100467.81;5059653;28;20107;-81
2022/03/10 01:57:11;;;;;;;3.33;1.50;;;;;;;-2.74;100.00;100459.56;5031391;28;20131;-80
2022/03/10 01:59:41;;;;;;;7.93;3.55;;;;;;;-2.77;100.00;100465.03;5041722;28;20029;-79
2022/03/10 02:02:07;;;;;;;8.02;4.53;;;;;;;-2.81;100.00;100460.88;5023765;28;20078;-82
2022/03/10 02:04:33;;;;;;;7.38;4.15;;;;;;;-2.88;100.00;100454.34;5057023;28;20032;-80
2022/03/10 02:07:03;;;;;;;6.40;3.47;;;;;;;-2.94;100.00;100459.97;5045821;28;20048;-81
2022/03/10 02:12:15;;;;;;;5.47;3.30;;;;;;;-3.02;100.00;100454.34;5053485;28;20402;-81
2022/03/10 02:17:26;;;;;;;9.85;4.25;;;;;;;-2.95;100.00;100458.28;5067202;28;20035;-84
2022/03/10 02:19:57;;;;;;;6.95;3.40;;;;;;;-2.88;100.00;100463.06;5031120;28;20041;-81
2022/03/10 02:22:24;;;;;;;6.60;3.65;;;;;;;-2.99;100.00;100448.91;5070805;28;20116;-80
2022/03/10 02:24:50;;;;;;;9.93;3.92;;;;;;;-3.08;100.00;100425.81;5067217;28;20029;-82
2022/03/10 02:27:21;;;;;;;8.38;4.00;;;;;;;-2.94;100.00;100457.34;5048795;28;20033;-81
2022/03/10 02:29:48;;;;;;;9.73;3.90;;;;;;;-2.94;100.00;100462.59;5047533;28;20051;-81
2022/03/10 02:32:14;;;;;;;6.78;3.40;;;;;;;-2.96;100.00;100465.34;5050840;28;20057;-81
2022/03/10 02:34:40;;;;;;;6.18;3.88;;;;;;;-2.99;100.00;100465.53;5030411;28;20044;-80
2022/03/10 02:37:06;;;;;;;7.63;4.15;;;;;;;-3.03;100.00;100465.81;5035189;28;20205;-80
2022/03/10 02:39:32;;;;;;;5.25;3.30;;;;;;;-3.04;100.00;100472.00;5053393;28;20037;-81
2022/03/10 02:41:58;;;;;;;11.23;3.88;;;;;;;-3.17;100.00;100470.16;5051389;28;20075;-80
2022/03/10 02:44:24;;;;;;;6.38;3.70;;;;;;;-3.30;100.00;100469.22;5033002;28;20064;-79
2022/03/10 02:46:51;;;;;;;10.23;4.85;;;;;;;-3.59;100.00;100442.94;5049128;28;20128;-80
2022/03/10 02:49:17;;;;;;;10.88;5.30;;;;;;;-3.57;100.00;100459.47;5049326;28;20516;-81
2022/03/10 02:51:43;;;;;;;9.50;5.28;;;;;;;-3.62;100.00;100471.19;5064656;28;20036;-81
2022/03/10 02:54:08;;;;;;;14.43;5.75;;;;;;;-3.81;100.00;100447.78;5046124;28;20377;-81
2022/03/10 02:56:34;;;;;;;14.13;5.85;;;;;;;-3.67;100.00;100466.19;5048497;28;20048;-81
2022/03/10 02:59:00;;;;;;;11.05;4.60;;;;;;;-3.58;100.00;100456.91;5044787;28;20031;-82
2022/03/10 03:01:25;;;;;;;5.57;2.97;;;;;;;-3.44;100.00;100458.69;5045301;28;20403;-79
2022/03/10 03:03:51;;;;;;;6.63;3.97;;;;;;;-3.35;100.00;100460.78;5046366;28;20094;-81
2022/03/10 03:06:19;;;;;;;10.57;3.28;;;;;;;-3.36;100.00;100440.66;5038692;28;20389;-80
2022/03/10 03:08:45;;;;;;;12.93;5.15;;;;;;;-3.27;100.00;100455.06;5049699;28;20031;-80
2022/03/10 03:11:10;;;;;;;14.50;5.65;;;;;;;-3.34;100.00;100458.03;5049380;28;20115;-81
2022/03/10 03:13:36;;;;;;;14.80;5.22;;;;;;;-3.40;100.00;100457.59;5029766;28;20036;-80
2022/03/10 03:16:02;;;;;;;11.50;5.07;;;;;;;-3.49;100.00;100461.63;5068896;28;20051;-80
2022/03/10 03:18:27;;;;;;;11.35;4.70;;;;;;;-3.69;100.00;100438.31;5053132;28;20041;-80
2022/03/10 03:20:53;;;;;;;10.30;3.63;;;;;;;-3.71;100.00;100434.94;5052428;28;20090;-80
2022/03/10 03:23:19;;;;;;;9.35;4.22;;;;;;;-3.57;100.00;100446.31;5062212;28;20035;-80
2022/03/10 03:25:44;;;;;;;6.35;3.53;;;;;;;-3.52;100.00;100443.38;5033255;28;20078;-80
2022/03/10 03:28:10;;;;;;;7.75;3.70;;;;;;;-3.41;100.00;100442.75;5033018;28;20088;-80
2022/03/10 03:30:35;;;;;;;5.90;3.50;;;;;;;-3.36;100.00;100446.78;5063018;28;20055;-81
2022/03/10 03:33:01;;;;;;;8.60;4.38;;;;;;;-3.54;100.00;100416.38;5051354;28;20067;-80
2022/03/10 03:35:27;;;;;;;11.75;4.38;;;;;;;-3.47;100.00;100441.31;5062863;28;20139;-79
2022/03/10 03:37:52;;;;;;;6.45;3.15;;;;;;;-3.54;100.00;100448.75;5049157;28;20085;-83
2022/03/10 03:40:18;;;;;;;8.70;3.97;;;;;;;-3.65;100.00;100440.69;5049798;28;20043;-79
2022/03/10 03:42:44;;;;;;;4.60;3.17;;;;;;;-3.61;100.00;100446.59;5065087;28;20040;-82
2022/03/10 03:45:10;;;;;;;7.15;3.75;;;;;;;-3.66;100.00;100433.72;5063350;28;20032;-81
2022/03/10 03:47:36;;;;;;;7.32;4.03;;;;;;;-3.72;100.00;100422.75;5068438;28;20033;-81
2022/03/10 03:50:04;;;;;;;11.35;3.95;;;;;;;-3.72;100.00;100435.91;5048381;28;20047;-80
2022/03/10 03:52:29;;;;;;;7.03;3.03;;;;;;;-3.81;100.00;100427.63;5030986;28;20111;-81
2022/03/10 03:54:55;;;;;;;8.18;3.80;;;;;;;-3.84;100.00;100424.31;5049536;28;20035;-81
2022/03/10 03:57:21;;;;;;;10.88;4.63;;;;;;;-3.86;100.00;100413.94;5051055;28;20436;-81
2022/03/10 03:59:47;;;;;;;5.78;3.45;;;;;;;-3.80;100.00;100417.97;5046438;28;20091;-79
2022/03/10 04:02:12;;;;;;;8.73;3.38;;;;;;;-3.74;100.00;100416.75;5061151;28;20469;-81
2022/03/10 04:04:38;;;;;;;8.63;3.78;;;;;;;-3.82;100.00;100404.06;5059141;28;20036;-79
2022/03/10 04:07:04;;;;;;;4.60;3.15;;;;;;;-3.97;100.00;100384.81;5050743;28;20036;-78
2022/03/10 04:09:29;;;;;;;7.07;3.28;;;;;;;-4.05;100.00;100389.69;5065719;28;20024;-77
2022/03/10 04:11:55;;;;;;;7.00;3.92;;;;;;;-3.98;100.00;100414.66;5045995;28;20025;-78
2022/03/10 04:14:20;;;;;;;6.70;3.00;;;;;;;-4.09;100.00;100412.66;5046388;28;20131;-80
2022/03/10 04:16:46;;;;;;;4.57;3.63;;;;;;;-4.10;100.00;100408.34;5062566;28;20449;-79
2022/03/10 04:19:12;;;;;;;5.40;2.92;;;;;;;-4.11;100.00;100413.69;5039562;28;20036;-80
2022/03/10 04:21:37;;;;;;;6.68;2.97;;;;;;;-4.07;100.00;100418.69;5030738;28;20067;-80
2022/03/10 04:24:03;;;;;;;13.20;3.60;;;;;;;-4.09;100.00;100409.19;5047171;28;20033;-80
2022/03/10 04:26:29;;;;;;;8.85;3.75;;;;;;;-4.07;100.00;100405.53;5030967;28;20089;-81
2022/03/10 04:28:55;;;;;;;12.88;3.85;;;;;;;-4.08;100.00;100408.25;5045807;28;20123;-80
2022/03/10 04:31:20;;;;;;;5.90;3.38;;;;;;;-4.15;100.00;100402.53;5050748;28;20112;-81
2022/03/10 04:33:46;;;;;;;6.07;3.15;;;;;;;-4.07;100.00;100415.22;5048244;28;20028;-80
2022/03/10 04:36:12;;;;;;;7.60;3.30;;;;;;;-4.03;100.00;100421.94;5048851;28;20044;-81
2022/03/10 04:38:38;;;;;;;6.22;3.72;;;;;;;-4.03;100.00;100414.91;5048122;28;20043;-80
2022/03/10 04:41:03;;;;;;;7.90;3.67;;;;;;;-4.05;100.00;100416.81;5066034;28;20025;-80
2022/03/10 04:43:29;;;;;;;4.85;2.90;;;;;;;-4.19;100.00;100401.00;5050856;28;20090;-80
2022/03/10 04:45:55;;;;;;;4.82;3.40;;;;;;;-4.22;100.00;100411.69;5029522;28;20589;-80
2022/03/10 04:48:23;;;;;;;5.60;3.80;;;;;;;-4.35;100.00;100402.84;5034792;28;20031;-81
2022/03/10 04:50:48;;;;;;;7.30;3.50;;;;;;;-4.36;100.00;100406.41;5049125;28;20036;-80
2022/03/10 04:53:14;;;;;;;11.93;3.63;;;;;;;-4.28;100.00;100417.31;5047256;28;20036;-80
2022/03/10 04:55:41;;;;;;;10.10;3.45;;;;;;;-4.36;100.00;100406.41;5047423;28;20059;-81
2022/03/10 04:58:08;;;;;;;6.10;3.13;;;;;;;-4.43;100.00;100401.50;5040209;28;20082;-81
2022/03/10 05:00:34;;;;;;;7.65;3.33;;;;;;;-4.38;100.00;100403.03;5063377;28;20040;-81
2022/03/10 05:03:00;;;;;;;7.00;3.05;;;;;;;-4.42;100.00;100387.47;5067219;28;20081;-80
2022/03/10 05:05:26;;;;;;;9.27;3.40;;;;;;;-4.21;100.00;100413.38;5030943;28;20127;-81
2022/03/10 05:07:51;;;;;;;8.13;3.67;;;;;;;-4.18;100.00;100410.59;5026450;28;20749;-81
2022/03/10 05:10:18;;;;;;;9.20;3.35;;;;;;;-4.23;100.00;100404.75;5030248;28;20036;-81
2022/03/10 05:12:54;;;;;;;14.13;3.45;;;;;;;-4.31;100.00;100402.59;5044934;28;20079;-80
2022/03/10 05:15:23;;;;;;;12.40;3.90;;;;;;;-4.36;100.00;100396.75;5062506;28;20040;-81
2022/03/10 05:17:49;;;;;;;9.18;3.20;;;;;;;-4.47;100.00;100396.53;5032686;28;20036;-80
2022/03/10 05:20:15;;;;;;;6.82;2.28;;;;;;;-4.46;100.00;100404.31;5051339;28;20063;-81
2022/03/10 05:22:49;;;;;;;5.53;2.35;;;;;;;-4.43;100.00;100411.16;5050824;28;20083;-80
2022/03/10 05:25:15;;;;;;;6.13;2.80;;;;;;;-4.37;100.00;100397.66;5046620;28;20039;-81
2022/03/10 05:27:42;;;;;;;5.18;2.90;;;;;;;-4.31;100.00;100399.97;5058045;28;20024;-80
2022/03/10 05:30:09;;;;;;;3.85;2.88;;;;;;;-4.15;100.00;100389.41;5065244;28;20040;-80
2022/03/10 05:32:34;;;;;;;6.43;3.70;;;;;;;-4.13;100.00;100390.13;5046753;28;20119;-81
2022/03/10 05:35:00;;;;;;;8.48;3.85;;;;;;;-4.13;100.00;100392.75;5047760;28;20120;-81
2022/03/10 05:37:27;;;;;;;8.45;4.00;;;;;;;-4.12;100.00;100391.00;5060248;28;20032;-81
2022/03/10 05:39:52;;;;;;;3.97;2.45;;;;;;;-4.10;100.00;100384.72;5047733;28;20050;-82
2022/03/10 05:42:18;;;;;;;5.70;2.53;;;;;;;-4.01;100.00;100384.16;5052284;28;20102;-80
2022/03/10 05:44:44;;;;;;;2.67;1.40;;;;;;;-3.94;100.00;100381.16;5033427;28;20097;-80
2022/03/10 05:47:10;;;;;;;8.40;4.85;;;;;;;-3.79;100.00;100374.97;5065529;28;20032;-80
2022/03/10 05:49:36;;;;;;;12.32;4.28;;;;;;;-3.72;100.00;100376.31;5048959;28;20027;-81
2022/03/10 05:52:02;;;;;;;6.88;3.70;;;;;;;-3.77;100.00;100352.94;5033626;28;20101;-81
2022/03/10 05:54:28;;;;;;;6.82;3.95;;;;;;;-3.69;100.00;100364.75;5050173;28;20067;-81
2022/03/10 05:56:53;;;;;;;8.40;4.22;;;;;;;-3.73;100.00;100356.22;5049211;28;20060;-80
2022/03/10 05:59:19;;;;;;;5.45;3.38;;;;;;;-3.82;100.00;100348.91;5037387;28;20041;-80
2022/03/10 06:01:46;;;;;;;8.48;4.00;;;;;;;-3.74;100.00;100361.56;5046589;28;20500;-80
2022/03/10 06:04:11;;;;;;;6.22;3.03;;;;;;;-3.83;100.00;100360.34;5037532;28;20025;-81
2022/03/10 06:06:39;;;;;;;11.40;4.05;;;;;;;-3.83;100.00;100350.69;5047441;28;20029;-81
2022/03/10 06:09:05;;;;;;;10.20;4.85;;;;;;;-3.81;100.00;100353.22;5028076;28;20063;-80
2022/03/10 06:11:31;;;;;;;6.00;3.15;;;;;;;-3.59;100.00;100364.09;5049438;28;20123;-81
2022/03/10 06:13:56;;;;;;;7.75;4.15;;;;;;;-3.57;100.00;100372.72;5051660;28;20047;-81
2022/03/10 06:16:22;;;;;;;5.47;3.30;;;;;;;-3.49;100.00;100359.13;5035923;28;20103;-82
2022/03/10 06:18:48;;;;;;;7.22;3.50;;;;;;;-3.55;100.00;100336.69;5049730;28;20040;-80
2022/03/10 06:21:13;;;;;;;6.60;3.65;;;;;;;-3.42;100.00;100362.19;5034619;28;20044;-80
2022/03/10 06:23:39;;;;;;;14.27;4.50;;;;;;;-3.49;100.00;100356.50;5050485;28;20029;-80
2022/03/10 06:26:05;;;;;;;6.88;3.60;;;;;;;-3.56;100.00;100345.50;5065347;28;20039;-81
2022/03/10 06:28:31;;;;;;;5.70;3.47;;;;;;;-3.62;100.00;100335.38;5059721;28;20045;-80
2022/03/10 06:30:57;;;;;;;2.75;1.58;;;;;;;-3.55;100.00;100331.44;5058779;28;20029;-80
2022/03/10 06:33:22;;;;;;;6.35;3.28;;;;;;;-3.49;100.00;100334.59;5043121;28;20040;-80
2022/03/10 06:35:48;;;;;;;7.35;3.60;;;;;;;-3.51;100.00;100342.59;5043659;28;20068;-80
2022/03/10 06:38:16;;;;;;;6.25;3.63;;;;;;;-3.56;100.00;100337.63;5044427;28;20037;-80
2022/03/10 06:40:45;;;;;;;9.77;3.58;;;;;;;-3.59;100.00;100327.31;5060125;28;20027;-80
2022/03/10 06:43:10;;;;;;;7.40;3.25;;;;;;;-3.46;100.00;100339.69;5046116;28;20044;-81
2022/03/10 06:45:36;;;;;;;5.75;3.28;;;;;;;-3.46;100.00;100330.00;5044703;28;20043;-80
2022/03/10 06:48:02;;;;;;;3.50;2.00;;;;;;;-3.40;100.00;100332.25;5058757;28;20502;-81
2022/03/10 06:50:28;;;;;;;6.28;3.85;;;;;;;-3.40;100.00;100334.03;5040681;28;20127;-80
2022/03/10 06:52:56;;;;;;;8.25;3.55;;;;;;;-3.35;100.00;100332.81;5058981;28;20057;-81
2022/03/10 06:55:24;;;;;;;6.10;3.65;;;;;;;-3.33;100.00;100330.94;5043997;28;20033;-81
2022/03/10 06:57:54;;;;;;;6.32;4.25;;;;;;;-3.36;100.00;100325.00;5043759;28;20798;-81
2022/03/10 07:00:21;;;;;;;4.60;3.20;;;;;;;-3.35;100.00;100331.97;5024192;28;20042;-81
2022/03/10 07:02:47;;;;;;;14.27;3.38;;;;;;;-3.44;100.00;100322.00;5058314;28;20071;-81
2022/03/10 07:05:13;;;;;;;8.70;4.20;;;;;;;-3.47;100.00;100315.16;5059002;28;20052;-81
2022/03/10 07:07:38;;;;;;;6.00;3.25;;;;;;;-3.39;100.00;100309.44;5043798;28;20405;-80
2022/03/10 07:10:05;;;;;;;4.75;2.47;;;;;;;-3.33;100.00;100302.00;5026230;28;20029;-81
2022/03/10 07:12:34;;;;;;;5.88;3.58;;;;;;;-3.16;100.00;100321.09;5070103;28;20043;-81
2022/03/10 07:14:59;;;;;;;5.82;3.47;;;;;;;-3.11;100.00;100314.59;5039330;28;20387;-80
2022/03/10 07:17:25;;;;;;;7.15;3.03;;;;;;;-2.90;100.00;100316.78;5058620;28;20078;-80
2022/03/10 07:19:51;;;;;;;2.05;1.73;;;;;;;-2.69;100.00;100309.28;5043165;28;20508;-81
2022/03/10 07:22:18;;;;;;;6.45;3.25;;;;;;;-2.54;100.00;100307.38;5057047;28;20040;-81
2022/03/10 07:24:46;;;;;;;4.95;2.60;;;;;;;-2.36;100.00;100311.41;5058411;28;20028;-80
2022/03/10 07:27:12;;;;;;;3.55;2.53;;;;;;;-2.13;100.00;100312.47;5053439;28;20071;-81
2022/03/10 07:29:38;;;;;;;9.60;3.30;;;;;;;-2.02;100.00;100304.66;5034895;28;20123;-81
2022/03/10 07:32:07;;;;;;;6.63;3.08;;;;;;;-1.79;100.00;100318.03;5076085;28;20076;-81
2022/03/10 07:34:33;;;;;;;7.03;3.42;;;;;;;-1.62;100.00;100311.56;5027750;28;20114;-80
2022/03/10 07:36:58;;;;;;;5.75;2.80;;;;;;;-1.57;100.00;100298.91;5042994;28;20185;-81
2022/03/10 07:39:24;;;;;;;8.23;2.72;;;;;;;-1.23;100.00;100321.06;5061958;28;20143;-80
2022/03/10 07:41:50;;;;;;;6.97;2.42;;;;;;;-1.11;100.00;100308.81;5035407;28;20032;-81
2022/03/10 07:44:15;;;;;;;10.45;3.00;;;;;;;-0.96;100.00;100314.72;5042679;28;20032;-81
2022/03/10 07:46:41;;;;;;;8.32;2.40;;;;;;;-0.89;100.00;100316.81;5026710;28;20039;-81
2022/03/10 07:49:08;;;;;;;5.40;2.85;;;;;;;-0.77;100.00;100314.22;5049211;28;20036;-81
2022/03/10 07:51:34;;;;;;;9.25;2.15;;;;;;;-0.81;100.00;100294.28;5052068;28;20024;-80
2022/03/10 07:54:00;;;;;;;5.55;2.35;;;;;;;-0.63;100.00;100302.66;5064760;28;20035;-80
2022/03/10 07:56:29;;;;;;;5.93;2.80;;;;;;;-0.46;100.00;100313.59;5067700;28;20074;-82
2022/03/10 07:58:57;;;;;;;4.47;2.15;;;;;;;-0.32;100.00;100311.72;5047587;28;20036;-80
2022/03/10 08:01:24;;;;;;;8.65;3.25;;;;;;;-0.23;100.00;100295.16;5049495;28;20047;-82
2022/03/10 08:03:49;;;;;;;10.32;2.75;;;;;;;-0.09;100.00;100300.22;5050391;28;20044;-81
2022/03/10 08:06:16;;;;;;;4.15;2.35;;;;;;;0.11;100.00;100300.50;5065844;28;20051;-81
2022/03/10 08:08:46;;;;;;;4.78;1.92;;;;;;;0.27;100.00;100300.97;5068279;28;20040;-80
2022/03/10 08:11:12;;;;;;;9.13;2.53;;;;;;;0.57;100.00;100299.50;5051671;28;20032;-81
2022/03/10 08:13:43;;;;;;;3.75;2.10;;;;;;;1.05;100.00;100301.75;5050706;28;20032;-81
2022/03/10 08:16:11;;;;;;;8.65;2.72;;;;;;;1.25;100.00;100302.78;5060954;28;20060;-80
2022/03/10 08:18:39;;;;;;;6.05;3.08;;;;;;;1.25;100.00;100300.13;5060150;28;20079;-82
2022/03/10 08:21:05;;;;;;;7.97;2.40;;;;;;;1.19;100.00;100298.84;5042963;28;20040;-81
2022/03/10 08:23:33;;;;;;;6.40;2.47;;;;;;;1.29;100.00;100310.31;5047437;28;20098;-81
2022/03/10 08:25:58;;;;;;;6.72;2.55;;;;;;;1.38;100.00;100298.16;5046368;28;20036;-81
2022/03/10 08:28:26;;;;;;;6.78;2.58;;;;;;;1.54;100.00;100308.31;5049888;28;20040;-80
2022/03/10 08:30:52;;;;;;;6.25;2.17;;;;;;;1.81;100.00;100305.13;5051145;28;20040;-81
2022/03/10 08:33:18;;;;;;;5.47;2.28;;;;;;;1.97;100.00;100292.22;5045620;28;20078;-82
2022/03/10 08:35:45;;;;;;;4.18;2.10;;;;;;;1.93;100.00;100279.34;5061070;28;20135;-82
2022/03/10 08:38:11;;;;;;;10.02;3.10;;;;;;;1.78;100.00;100286.00;5055414;28;20057;-80
2022/03/10 08:40:36;;;;;;;3.47;2.22;;;;;;;1.75;100.00;100295.88;5050736;28;20060;-81
2022/03/10 08:43:12;;;;;;;4.18;2.53;;;;;;;1.62;100.00;100295.25;5048605;28;20115;-81
2022/03/10 08:45:37;;;;;;;7.43;2.38;;;;;;;1.71;100.00;100277.72;5048843;28;20485;-81
2022/03/10 08:48:03;;;;;;;4.68;1.90;;;;;;;2.02;100.00;100275.09;5050812;28;20031;-80
2022/03/10 08:50:29;;;;;;;16.98;6.57;;;;;;;2.05;100.00;100282.78;5050324;28;20547;-80
2022/03/10 08:52:55;;;;;;;14.95;5.22;;;;;;;2.03;100.00;100282.06;5033042;28;20132;-80
2022/03/10 08:55:23;;;;;;;16.45;5.00;;;;;;;2.01;100.00;100276.06;5027941;28;20063;-82
2022/03/10 08:57:50;;;;;;;11.65;5.63;;;;;;;2.03;100.00;100282.91;5063746;28;20048;-81
2022/03/10 09:00:16;;;;;;;17.65;7.50;;;;;;;2.05;100.00;100262.41;5049050;28;20119;-80
2022/03/10 09:02:42;;;;;;;12.15;4.75;;;;;;;2.19;100.00;100274.47;5021990;28;20135;-83
2022/03/10 09:05:11;;;;;;;17.33;7.38;;;;;;;2.35;100.00;100279.25;5031173;28;20367;-80
2022/03/10 09:07:37;;;;;;;11.05;4.45;;;;;;;2.51;100.00;100276.94;5029448;28;20037;-82
2022/03/10 09:10:07;;;;;;;14.38;6.10;;;;;;;2.45;100.00;100261.56;5066171;28;20470;-81
2022/03/10 09:12:32;;;;;;;11.07;5.05;;;;;;;2.54;100.00;100266.06;5052006;28;20263;-81
2022/03/10 09:14:58;;;;;;;15.73;6.78;;;;;;;2.58;100.00;100267.47;5061876;28;20020;-81
2022/03/10 09:17:24;;;;;;;11.98;3.97;;;;;;;2.63;100.00;100264.41;5046515;28;20136;-81
2022/03/10 09:19:50;;;;;;;4.50;3.03;;;;;;;2.88;100.00;100252.41;5051134;28;20044;-81
2022/03/10 09:22:20;;;;;;;31.15;12.02;;;;;;;3.26;100.00;100254.25;5035092;28;20041;-80
2022/03/10 09:24:46;;;;;;;20.83;8.93;;;;;;;3.91;100.00;100230.44;5051957;28;20489;-80
2022/03/10 09:27:11;;;;;;;27.20;10.40;;;;;;;4.93;100.00;100248.09;5038709;28;20446;-81
2022/03/10 09:29:37;;;;;;;14.68;6.75;;;;;;;5.37;100.00;100240.16;5053878;28;20059;-82
2022/03/10 09:32:03;;;;;;;15.00;7.53;;;;;;;6.00;100.00;100233.72;5052558;28;20049;-80
2022/03/10 09:34:29;;;;;;;10.63;3.85;;;;;;;7.13;96.68;100220.03;5054739;28;20040;-81
2022/03/10 09:36:55;;;;;;;6.00;2.92;;;;;;;7.09;95.74;100235.53;5078510;28;20032;-80
2022/03/10 09:39:21;;;;;;;3.00;2.28;;;;;;;6.65;97.98;100243.84;5055521;28;20093;-80
2022/03/10 09:41:46;;;;;;;5.18;2.67;;;;;;;6.40;99.57;100234.91;5070396;28;20094;-81
2022/03/10 09:44:19;;;;;;;9.32;3.30;;;;;;;6.53;99.55;100239.78;5073758;28;20054;-81
2022/03/10 09:46:52;;;;;;;6.75;2.35;;;;;;;6.92;97.98;100245.41;5042077;28;20081;-80
2022/03/10 09:49:21;;;;;;;6.45;1.48;;;;;;;6.84;96.11;100234.69;5038469;28;20064;-81
2022/03/10 09:51:49;;;;;;;5.22;2.30;;;;;;;6.78;96.58;100222.84;5071095;28;20489;-81
2022/03/10 09:54:15;;;;;;;7.25;2.30;;;;;;;6.65;97.25;100229.66;5059571;28;20062;-82
2022/03/10 09:56:42;;;;;;;5.68;2.42;;;;;;;6.53;98.02;100219.25;5077794;28;20046;-81
2022/03/10 09:59:09;;;;;;;9.18;3.20;;;;;;;6.69;98.19;100213.13;5054521;28;20043;-81
2022/03/10 10:01:34;;;;;;;5.97;1.60;;;;;;;7.04;97.32;100209.34;5071807;28;20123;-80
2022/03/10 10:04:00;;;;;;;6.70;2.42;;;;;;;7.19;97.42;100201.47;5071968;28;20042;-80
2022/03/10 10:06:27;;;;;;;4.32;1.67;;;;;;;7.26;96.97;100191.78;5075239;28;20032;-81
2022/03/10 10:08:57;;;;;;;6.82;2.33;;;;;;;7.53;96.17;100189.75;5054421;28;20043;-81
2022/03/10 10:11:33;;;;;;;5.18;2.63;;;;;;;7.70;96.06;100179.84;5060217;28;20553;-80
2022/03/10 10:13:59;;;;;;;10.95;4.30;;;;;;;8.07;95.27;100154.25;5055800;28;20033;-79
2022/03/10 10:16:25;;;;;;;6.68;2.58;;;;;;;8.57;93.61;100169.97;5070579;28;20064;-80
2022/03/10 10:18:56;;;;;;;8.43;3.92;;;;;;;8.72;93.73;100171.84;5056989;28;20095;-80
2022/03/10 10:21:23;;;;;;;10.18;4.43;;;;;;;8.56;94.78;100167.44;5069214;28;20044;-79
2022/03/10 10:23:51;;;;;;;8.52;3.78;;;;;;;8.49;95.08;100167.31;5042155;28;20044;-82
2022/03/10 10:26:18;;;;;;;4.78;2.40;;;;;;;8.39;96.56;100156.00;5038198;28;20032;-80
2022/03/10 10:28:46;;;;;;;6.28;3.20;;;;;;;8.38;96.71;100155.09;5057510;28;20036;-82
2022/03/10 10:31:14;;;;;;;17.50;7.65;;;;;;;8.52;96.81;100161.63;5059006;28;20530;-85
2022/03/10 10:33:41;;;;;;;3.88;2.03;;;;;;;8.56;97.08;100165.59;5043072;28;20024;-82
2022/03/10 10:36:24;;;;;;;3.75;2.15;;;;;;;8.80;96.91;100161.91;5046166;28;20389;-82
2022/03/10 10:38:52;;;;;;;3.50;2.25;;;;;;;9.13;95.61;100150.06;5055857;28;20029;-82
2022/03/10 10:41:28;;;;;;;6.20;2.53;;;;;;;9.43;95.04;100145.63;5059733;28;20105;-82
2022/03/10 10:43:59;;;;;;;4.13;2.30;;;;;;;9.71;94.27;100140.44;5053261;28;20496;-82
2022/03/10 10:46:32;;;;;;;4.20;1.80;;;;;;;9.63;95.62;100146.75;5054745;28;20086;-83
2022/03/10 10:49:04;;;;;;;5.43;1.73;;;;;;;9.36;97.21;100128.56;5029564;28;20043;-83
2022/03/10 10:51:34;;;;;;;4.15;2.15;;;;;;;9.36;98.28;100123.22;5046885;28;20494;-83
2022/03/10 10:54:01;;;;;;;4.43;2.08;;;;;;;9.38;98.97;100134.59;5037972;28;20116;-83
2022/03/10 10:56:28;;;;;;;6.75;2.20;;;;;;;9.24;99.58;100112.94;5054942;28;20098;-82
2022/03/10 10:58:54;;;;;;;10.43;2.83;;;;;;;9.39;100.00;100125.53;5037783;28;20131;-81
2022/03/10 11:01:31;;;;;;;5.53;2.00;;;;;;;9.35;100.00;100124.22;5076706;28;20028;-82
2022/03/10 11:03:56;;;;;;;9.68;1.75;;;;;;;9.18;100.00;100102.09;5059991;28;20024;-82
2022/03/10 11:06:22;;;;;;;6.55;1.75;;;;;;;9.10;100.00;100124.44;5036906;28;20157;-81
2022/03/10 11:08:49;;;;;;;2.08;1.50;;;;;;;8.98;100.00;100115.19;5070042;28;20039;-81
2022/03/10 11:11:15;;;;;;;6.05;1.50;;;;;;;8.84;100.00;100099.88;5074400;28;20077;-81
2022/03/10 11:13:41;;;;;;;5.50;2.20;;;;;;;8.72;100.00;100113.72;5055477;28;20044;-84
2022/03/10 11:16:07;;;;;;;5.85;2.08;;;;;;;8.62;100.00;100109.63;5038067;28;20043;-82
2022/03/10 11:18:34;;;;;;;6.88;1.80;;;;;;;8.58;100.00;100109.16;5070283;28;20024;-83
2022/03/10 11:21:09;;;;;;;3.13;1.88;;;;;;;8.55;100.00;100096.13;5054547;28;20029;-82